Time;durP1;ratioP1;P1;durP2;ratioP2;P2;SDS_P1;SDS_P2;PMS_P1;PMS_P2;Temp;Humidity;BMP_temperature;BMP_pressure;BME280_temperature;BME280_humidity;BME280_pressure;Samples;Min_cycle;Max_cycle;Signal;HPM_P1;HPM_P2
2023/12/02 00:02:17;;;;;;;105.15;46.95;;;-1.00;99.90;;;;;;4938979;28;20043;-63
2023/12/02 00:04:43;;;;;;;106.93;49.42;;;-1.00;99.90;;;;;;4957122;28;20192;-62
2023/12/02 00:07:10;;;;;;;107.80;46.42;;;-0.60;99.90;;;;;;4926104;28;20038;-63
2023/12/02 00:09:35;;;;;;;98.72;45.42;;;-0.90;99.90;;;;;;4957591;28;20373;-63
2023/12/02 00:12:02;;;;;;;104.75;48.75;;;-1.30;99.90;;;;;;4956132;28;20047;-63
2023/12/02 00:14:27;;;;;;;105.18;47.70;;;-1.20;99.90;;;;;;4956176;28;20050;-63
2023/12/02 00:16:53;;;;;;;102.10;46.00;;;-0.60;99.90;;;;;;4955961;28;20034;-64
2023/12/02 00:19:19;;;;;;;101.28;46.33;;;-1.10;99.90;;;;;;4955784;28;20057;-63
2023/12/02 00:21:44;;;;;;;107.00;48.30;;;-1.30;99.90;;;;;;4939974;28;20459;-63
2023/12/02 00:24:10;;;;;;;103.30;46.78;;;-1.20;99.90;;;;;;4956137;28;20042;-63
2023/12/02 00:26:36;;;;;;;97.88;46.88;;;-1.10;99.90;;;;;;4955076;28;20054;-63
2023/12/02 00:29:01;;;;;;;101.90;45.83;;;-1.20;99.90;;;;;;4955670;28;20645;-63
2023/12/02 00:31:27;;;;;;;101.53;47.30;;;-1.20;99.90;;;;;;4956310;28;20413;-63
2023/12/02 00:33:53;;;;;;;99.43;45.35;;;-1.30;99.90;;;;;;4939848;28;20478;-65
2023/12/02 00:36:18;;;;;;;98.68;44.72;;;-1.30;99.90;;;;;;4939595;28;20062;-63
2023/12/02 00:38:44;;;;;;;102.32;48.33;;;-1.30;99.90;;;;;;4955340;28;20034;-63
2023/12/02 00:41:11;;;;;;;94.88;45.35;;;-0.50;99.90;;;;;;4939437;28;20042;-63
2023/12/02 00:43:37;;;;;;;98.80;46.03;;;-1.00;99.90;;;;;;4956018;28;20134;-63
2023/12/02 00:46:02;;;;;;;97.47;47.55;;;-0.40;99.90;;;;;;4934150;28;20130;-63
2023/12/02 00:48:28;;;;;;;88.63;43.13;;;-0.50;99.90;;;;;;4955955;28;20042;-63
2023/12/02 00:50:54;;;;;;;96.25;43.85;;;-1.20;99.90;;;;;;4926728;28;20492;-62
2023/12/02 00:53:20;;;;;;;92.13;45.80;;;-0.80;99.90;;;;;;4955363;28;20201;-63
2023/12/02 00:55:45;;;;;;;99.18;45.97;;;-1.30;99.90;;;;;;4955507;28;20220;-64
2023/12/02 00:58:11;;;;;;;90.55;41.90;;;-0.60;99.90;;;;;;4938819;28;20038;-65
2023/12/02 01:00:37;;;;;;;86.25;41.08;;;-0.50;99.90;;;;;;4956296;28;20053;-63
2023/12/02 01:03:03;;;;;;;88.47;44.08;;;-0.50;99.90;;;;;;4939617;28;20042;-63
2023/12/02 01:05:28;;;;;;;83.97;40.70;;;-1.20;99.90;;;;;;4928344;28;20138;-63
2023/12/02 01:07:54;;;;;;;94.93;44.65;;;-1.20;99.90;;;;;;4939317;28;20039;-63
2023/12/02 01:10:20;;;;;;;90.88;43.17;;;-1.30;99.90;;;;;;4923309;28;20052;-63
2023/12/02 01:12:46;;;;;;;86.82;41.13;;;-0.60;99.90;;;;;;4956920;28;20066;-63
2023/12/02 01:15:11;;;;;;;92.60;43.72;;;-0.70;99.90;;;;;;4955414;28;20401;-63
2023/12/02 01:17:37;;;;;;;90.45;41.65;;;-1.10;99.90;;;;;;4939943;28;20170;-62
2023/12/02 01:20:03;;;;;;;82.90;41.55;;;-1.20;99.90;;;;;;4956392;28;20062;-63
2023/12/02 01:22:29;;;;;;;85.10;42.53;;;-1.00;99.90;;;;;;4954903;28;20579;-63
2023/12/02 01:24:54;;;;;;;89.20;43.10;;;-1.10;99.90;;;;;;4955069;28;20231;-63
2023/12/02 01:27:20;;;;;;;79.55;39.80;;;-0.90;99.90;;;;;;4939010;28;20496;-62
2023/12/02 01:29:46;;;;;;;82.00;38.85;;;-0.40;99.90;;;;;;4955382;28;20101;-63
2023/12/02 01:32:12;;;;;;;76.80;37.40;;;-0.40;99.90;;;;;;4939395;28;20039;-65
2023/12/02 01:34:37;;;;;;;79.60;38.85;;;-1.00;99.90;;;;;;4939061;28;20118;-62
2023/12/02 01:37:03;;;;;;;82.13;40.45;;;-0.70;99.90;;;;;;4954590;28;20519;-64
2023/12/02 01:39:29;;;;;;;79.85;38.72;;;-0.40;99.90;;;;;;4955455;28;20042;-63
2023/12/02 01:41:55;;;;;;;80.00;40.92;;;-0.80;99.90;;;;;;4954721;28;20039;-64
2023/12/02 01:44:20;;;;;;;76.32;38.03;;;-1.30;99.90;;;;;;4938834;28;20480;-63
2023/12/02 01:46:46;;;;;;;78.68;36.20;;;-1.10;99.90;;;;;;4939246;28;20075;-63
2023/12/02 01:49:12;;;;;;;75.85;37.50;;;-1.20;99.90;;;;;;4922714;28;20038;-63
2023/12/02 01:51:38;;;;;;;72.25;37.00;;;-0.50;99.90;;;;;;4957394;28;20047;-63
2023/12/02 01:54:05;;;;;;;72.88;35.85;;;-1.00;99.90;;;;;;4958277;28;20105;-63
2023/12/02 01:56:30;;;;;;;69.70;35.30;;;-1.10;99.90;;;;;;4942430;28;20158;-63
2023/12/02 01:58:57;;;;;;;74.55;37.75;;;-0.60;99.90;;;;;;4958386;28;20042;-63
2023/12/02 02:01:22;;;;;;;71.45;37.22;;;-1.00;99.90;;;;;;4957975;28;20627;-63
2023/12/02 02:03:49;;;;;;;73.68;36.28;;;-1.10;99.90;;;;;;4958503;28;20255;-62
2023/12/02 02:06:15;;;;;;;70.68;36.25;;;-1.20;99.90;;;;;;4974043;28;20046;-63
2023/12/02 02:08:41;;;;;;;74.72;36.45;;;-1.20;99.90;;;;;;4958239;28;20270;-63
2023/12/02 02:11:07;;;;;;;69.60;35.63;;;-0.90;99.90;;;;;;4958313;28;20067;-63
2023/12/02 02:13:33;;;;;;;73.38;36.70;;;-1.00;99.90;;;;;;4942020;28;20446;-63
2023/12/02 02:15:59;;;;;;;72.85;37.08;;;-1.00;99.90;;;;;;4957422;28;20134;-62
2023/12/02 02:18:25;;;;;;;70.53;36.35;;;-1.30;99.90;;;;;;4958080;28;20089;-64
2023/12/02 02:20:52;;;;;;;70.80;35.58;;;-1.30;99.90;;;;;;4957287;28;20141;-63
2023/12/02 02:23:20;;;;;;;72.50;35.60;;;-0.90;99.90;;;;;;4957935;28;20042;-63
2023/12/02 02:25:49;;;;;;;73.10;36.60;;;-1.10;99.90;;;;;;4957641;28;20043;-63
2023/12/02 02:28:23;;;;;;;65.82;34.47;;;-1.10;99.90;;;;;;4958382;28;20191;-63
2023/12/02 02:30:49;;;;;;;76.32;35.33;;;-0.60;99.90;;;;;;4989920;28;20050;-63
2023/12/02 02:33:15;;;;;;;68.10;34.95;;;-1.30;99.90;;;;;;4957364;28;20267;-63
2023/12/02 02:35:41;;;;;;;72.38;37.03;;;-0.60;99.90;;;;;;4957505;28;20043;-62
2023/12/02 02:38:07;;;;;;;70.93;36.10;;;-0.70;99.90;;;;;;4958646;28;20046;-63
2023/12/02 02:40:33;;;;;;;72.03;35.95;;;-1.50;99.90;;;;;;4957309;28;20057;-63
2023/12/02 02:42:58;;;;;;;73.18;36.05;;;-0.70;99.90;;;;;;4957964;28;20343;-64
2023/12/02 02:45:24;;;;;;;72.88;36.40;;;-1.50;99.90;;;;;;4925219;28;20595;-63
2023/12/02 02:47:50;;;;;;;75.90;36.97;;;-0.60;99.90;;;;;;4952781;28;20043;-62
2023/12/02 02:50:16;;;;;;;73.35;36.95;;;-1.30;99.90;;;;;;4957480;28;20035;-62
2023/12/02 02:52:42;;;;;;;76.47;38.00;;;-1.00;99.90;;;;;;4958917;28;20453;-62
2023/12/02 02:55:08;;;;;;;79.22;39.70;;;-1.20;99.90;;;;;;4924126;28;20106;-62
2023/12/02 02:57:34;;;;;;;80.53;38.80;;;-0.70;99.90;;;;;;4989906;28;20039;-62
2023/12/02 03:00:00;;;;;;;78.20;38.95;;;-1.30;99.90;;;;;;4957108;28;20062;-63
2023/12/02 03:02:26;;;;;;;80.82;37.30;;;-0.70;99.90;;;;;;4954029;28;20509;-62
2023/12/02 03:04:52;;;;;;;78.25;37.90;;;-0.90;99.90;;;;;;4930187;28;20038;-62
2023/12/02 03:07:18;;;;;;;75.57;37.97;;;-1.70;99.90;;;;;;4957429;28;20548;-62
2023/12/02 03:09:44;;;;;;;77.75;38.70;;;-1.60;99.90;;;;;;4940405;28;20248;-63
2023/12/02 03:12:10;;;;;;;78.28;38.33;;;-1.40;99.90;;;;;;4957603;28;20061;-63
2023/12/02 03:14:38;;;;;;;76.55;39.60;;;-0.70;99.90;;;;;;4940752;28;20042;-62
2023/12/02 03:17:04;;;;;;;72.18;36.22;;;-1.60;99.90;;;;;;4956734;28;20043;-63
2023/12/02 03:19:30;;;;;;;82.15;40.42;;;-1.40;99.90;;;;;;4957122;28;20046;-63
2023/12/02 03:21:55;;;;;;;82.28;40.13;;;-0.80;99.90;;;;;;4956934;28;20270;-63
2023/12/02 03:24:21;;;;;;;75.18;36.45;;;-1.50;99.90;;;;;;4924239;28;20284;-63
2023/12/02 03:26:47;;;;;;;80.28;36.92;;;-1.10;99.90;;;;;;4911150;28;20047;-64
2023/12/02 03:29:12;;;;;;;75.60;38.70;;;-1.50;99.90;;;;;;4940579;28;20402;-62
2023/12/02 03:31:38;;;;;;;76.43;37.45;;;-1.50;99.90;;;;;;4956493;28;20034;-63
2023/12/02 03:34:04;;;;;;;70.57;35.08;;;-0.70;99.90;;;;;;4956743;28;20069;-63
2023/12/02 03:36:30;;;;;;;72.93;38.65;;;-0.70;99.90;;;;;;4940085;28;20386;-64
2023/12/02 03:38:56;;;;;;;76.05;38.65;;;-1.40;99.90;;;;;;4955956;28;20047;-63
2023/12/02 03:41:22;;;;;;;73.75;36.83;;;-1.50;99.90;;;;;;4957040;28;20042;-63
2023/12/02 03:43:48;;;;;;;70.32;35.30;;;-0.50;99.90;;;;;;4940831;28;20532;-62
2023/12/02 03:46:14;;;;;;;74.22;36.90;;;-1.40;99.90;;;;;;4939955;28;20089;-63
2023/12/02 03:48:40;;;;;;;73.82;37.80;;;-0.70;99.90;;;;;;4955891;28;20046;-63
2023/12/02 03:51:06;;;;;;;69.05;36.05;;;-1.40;99.90;;;;;;4956989;28;20043;-63
2023/12/02 03:53:34;;;;;;;69.53;34.92;;;-0.80;99.90;;;;;;4940195;28;20136;-63
2023/12/02 03:56:00;;;;;;;67.95;35.08;;;-1.10;99.90;;;;;;4955866;28;20307;-64
2023/12/02 03:58:27;;;;;;;74.40;37.13;;;-0.60;99.90;;;;;;4956624;28;20047;-63
2023/12/02 04:00:53;;;;;;;70.97;35.90;;;-1.40;99.90;;;;;;4955950;28;20097;-63
2023/12/02 04:03:19;;;;;;;73.68;37.08;;;-1.00;99.90;;;;;;4954908;28;20161;-64
2023/12/02 04:05:45;;;;;;;67.25;35.33;;;-1.10;99.90;;;;;;4939298;28;20477;-63
2023/12/02 04:08:11;;;;;;;61.72;33.17;;;-0.70;99.90;;;;;;4955611;28;20577;-62
2023/12/02 04:10:36;;;;;;;66.35;34.13;;;-0.70;99.90;;;;;;4955226;28;20062;-63
2023/12/02 04:13:03;;;;;;;64.80;33.78;;;-0.70;99.90;;;;;;4923238;28;20042;-63
2023/12/02 04:15:29;;;;;;;65.75;34.72;;;-1.20;99.90;;;;;;4941456;28;20589;-64
2023/12/02 04:17:54;;;;;;;64.30;31.92;;;-1.40;99.90;;;;;;4955424;28;20051;-63
2023/12/02 04:20:21;;;;;;;66.43;34.70;;;-1.60;99.90;;;;;;4955113;28;20475;-63
2023/12/02 04:22:47;;;;;;;70.40;34.80;;;-0.70;99.90;;;;;;4941243;28;20054;-63
2023/12/02 04:25:14;;;;;;;57.38;30.83;;;-0.80;99.90;;;;;;4954713;28;20042;-63
2023/12/02 04:27:41;;;;;;;61.40;33.67;;;-1.50;99.90;;;;;;4955486;28;20373;-63
2023/12/02 04:30:08;;;;;;;56.10;30.55;;;-0.70;99.90;;;;;;4955317;28;20046;-63
2023/12/02 04:32:34;;;;;;;59.70;32.83;;;-0.90;99.90;;;;;;4955065;28;20517;-63
2023/12/02 04:35:00;;;;;;;61.25;32.95;;;-1.50;99.90;;;;;;4954747;28;20134;-63
2023/12/02 04:37:26;;;;;;;53.35;29.60;;;-1.70;99.90;;;;;;4956458;28;20042;-62
2023/12/02 04:39:54;;;;;;;58.13;31.52;;;-0.80;99.90;;;;;;4955220;28;20229;-64
2023/12/02 04:42:20;;;;;;;52.15;30.63;;;-0.80;99.90;;;;;;4956416;28;20047;-64
2023/12/02 04:44:46;;;;;;;58.78;31.58;;;-1.50;99.90;;;;;;4954425;28;20059;-63
2023/12/02 04:47:12;;;;;;;54.10;29.55;;;-0.80;99.90;;;;;;4988014;28;20484;-63
2023/12/02 04:49:37;;;;;;;54.67;31.08;;;-1.60;99.90;;;;;;4939320;28;20130;-63
2023/12/02 04:52:04;;;;;;;54.97;30.70;;;-1.50;99.90;;;;;;4939166;28;20544;-63
2023/12/02 04:54:30;;;;;;;54.92;30.17;;;-0.80;99.90;;;;;;4958139;28;20038;-63
2023/12/02 04:56:56;;;;;;;53.83;31.50;;;-1.10;99.90;;;;;;4955211;28;20098;-63
2023/12/02 04:59:22;;;;;;;54.28;29.83;;;-1.30;99.90;;;;;;4955664;28;20592;-63
2023/12/02 05:01:47;;;;;;;54.50;31.08;;;-1.20;99.90;;;;;;4939197;28;20201;-63
2023/12/02 05:04:13;;;;;;;58.38;32.05;;;-0.90;99.90;;;;;;4954846;28;20055;-63
2023/12/02 05:06:39;;;;;;;56.63;31.73;;;-1.50;99.90;;;;;;4970112;28;20583;-63
2023/12/02 05:09:08;;;;;;;51.92;29.65;;;-1.20;99.90;;;;;;4939337;28;20053;-63
2023/12/02 05:11:34;;;;;;;53.42;31.30;;;-1.50;99.90;;;;;;4956870;28;20093;-64
2023/12/02 05:14:00;;;;;;;62.05;32.70;;;-1.00;99.90;;;;;;4940815;28;20039;-63
2023/12/02 05:16:25;;;;;;;56.40;31.42;;;-1.00;99.90;;;;;;4941655;28;20282;-62
2023/12/02 05:18:51;;;;;;;57.00;29.55;;;-1.10;99.90;;;;;;4957124;28;20047;-62
2023/12/02 05:21:18;;;;;;;56.80;31.52;;;-1.60;99.90;;;;;;4958249;28;20299;-63
2023/12/02 05:23:45;;;;;;;53.22;31.08;;;-0.70;99.90;;;;;;4925826;28;20168;-63
2023/12/02 05:26:11;;;;;;;56.65;31.50;;;-0.80;99.90;;;;;;4959928;28;20501;-63
2023/12/02 05:28:38;;;;;;;61.28;33.95;;;-0.90;99.90;;;;;;4929153;28;20121;-63
2023/12/02 05:31:04;;;;;;;59.25;32.50;;;-1.20;99.90;;;;;;4945091;28;20093;-63
2023/12/02 05:33:29;;;;;;;54.65;30.30;;;-1.20;99.90;;;;;;4939081;28;20039;-63
2023/12/02 05:35:55;;;;;;;56.65;31.92;;;-0.90;99.90;;;;;;4945345;28;20043;-62
2023/12/02 05:38:21;;;;;;;55.33;29.00;;;-0.80;99.90;;;;;;4945603;28;20074;-63
2023/12/02 05:40:47;;;;;;;60.28;33.60;;;-0.90;99.90;;;;;;4929274;28;20109;-63
2023/12/02 05:43:13;;;;;;;59.45;33.78;;;-1.50;99.90;;;;;;4960820;28;20042;-63
2023/12/02 05:45:39;;;;;;;63.10;34.35;;;-1.70;99.90;;;;;;4961968;28;20038;-63
2023/12/02 05:48:05;;;;;;;60.65;33.22;;;-0.90;99.90;;;;;;4960740;28;20043;-63
2023/12/02 05:50:31;;;;;;;59.65;31.60;;;-1.80;99.90;;;;;;4960409;28;20344;-63
2023/12/02 05:52:57;;;;;;;66.03;35.28;;;-1.10;99.90;;;;;;4959310;28;20282;-63
2023/12/02 05:55:22;;;;;;;64.15;34.83;;;-1.70;99.90;;;;;;4958949;28;20118;-63
2023/12/02 05:57:48;;;;;;;63.60;35.33;;;-1.00;99.90;;;;;;4942231;28;20584;-63
2023/12/02 06:00:17;;;;;;;68.40;35.95;;;-1.20;99.90;;;;;;4928970;28;20046;-63
2023/12/02 06:02:43;;;;;;;68.03;35.85;;;-1.70;99.90;;;;;;4956213;28;20622;-63
2023/12/02 06:05:09;;;;;;;64.82;34.63;;;-1.10;99.90;;;;;;4941495;28;20338;-63
2023/12/02 06:07:34;;;;;;;66.75;36.97;;;-0.90;99.90;;;;;;4959191;28;20117;-64
2023/12/02 06:10:00;;;;;;;67.57;36.05;;;-1.70;99.90;;;;;;4958111;28;20521;-62
2023/12/02 06:12:26;;;;;;;66.88;36.45;;;-1.80;99.90;;;;;;4942208;28;20509;-64
2023/12/02 06:14:52;;;;;;;69.28;37.30;;;-1.60;99.90;;;;;;4957743;28;20478;-63
2023/12/02 06:17:18;;;;;;;67.18;36.05;;;-1.30;99.90;;;;;;4958276;28;20149;-62
2023/12/02 06:19:43;;;;;;;72.65;37.88;;;-1.60;99.90;;;;;;4957479;28;20465;-63
2023/12/02 06:22:09;;;;;;;68.38;37.33;;;-1.80;99.90;;;;;;4957891;28;20065;-63
2023/12/02 06:24:35;;;;;;;74.82;38.17;;;-1.10;99.90;;;;;;4958555;28;20051;-63
2023/12/02 06:27:00;;;;;;;78.28;38.95;;;-1.20;99.90;;;;;;4941224;28;20433;-63
2023/12/02 06:29:26;;;;;;;71.78;38.78;;;-1.20;99.90;;;;;;4941379;28;20050;-63
2023/12/02 06:31:53;;;;;;;77.70;40.33;;;-1.50;99.90;;;;;;4957567;28;20129;-63
2023/12/02 06:34:19;;;;;;;71.28;37.03;;;-1.20;99.90;;;;;;4957825;28;20129;-63
2023/12/02 06:36:45;;;;;;;75.55;39.47;;;-1.40;99.90;;;;;;4956578;28;20190;-63
2023/12/02 06:39:14;;;;;;;75.00;39.05;;;-1.70;99.90;;;;;;4957799;28;20094;-63
2023/12/02 06:41:41;;;;;;;80.93;40.92;;;-1.20;99.90;;;;;;4957825;28;20359;-63
2023/12/02 06:44:08;;;;;;;72.15;39.65;;;-1.60;99.90;;;;;;4941911;28;20054;-62
2023/12/02 06:46:34;;;;;;;81.13;41.47;;;-1.30;99.90;;;;;;4957350;28;20049;-63
2023/12/02 06:49:00;;;;;;;80.63;40.95;;;-1.60;99.90;;;;;;4941406;28;20150;-62
2023/12/02 06:51:29;;;;;;;74.60;39.47;;;-1.50;99.90;;;;;;4956863;28;20049;-63
2023/12/02 06:53:55;;;;;;;76.20;39.45;;;-1.00;99.90;;;;;;4957748;28;20498;-63
2023/12/02 06:56:22;;;;;;;77.82;39.90;;;-1.50;99.90;;;;;;4957290;28;20058;-62
2023/12/02 06:58:49;;;;;;;77.75;41.28;;;-1.10;99.90;;;;;;4957252;28;20042;-63
2023/12/02 07:01:31;;;;;;;77.07;40.30;;;-1.00;99.90;;;;;;4957994;28;20057;-62
2023/12/02 07:03:59;;;;;;;80.15;39.85;;;-1.20;99.90;;;;;;4957438;28;20581;-62
2023/12/02 07:06:26;;;;;;;79.15;40.25;;;-1.60;99.90;;;;;;4956255;28;20132;-63
2023/12/02 07:08:54;;;;;;;81.63;41.63;;;-1.00;99.90;;;;;;4923679;28;20445;-63
2023/12/02 07:11:20;;;;;;;81.43;40.97;;;-1.20;99.90;;;;;;4942045;28;20066;-62
2023/12/02 07:13:46;;;;;;;79.57;41.83;;;-1.60;99.90;;;;;;4955864;28;20031;-62
2023/12/02 07:16:11;;;;;;;74.78;39.42;;;-1.60;99.90;;;;;;4955823;28;20043;-63
2023/12/02 07:18:39;;;;;;;80.63;40.90;;;-1.90;99.90;;;;;;4955573;28;20777;-63
2023/12/02 07:21:05;;;;;;;79.45;41.83;;;-1.90;99.90;;;;;;4926117;28;20038;-63
2023/12/02 07:23:31;;;;;;;82.38;42.20;;;-1.90;99.90;;;;;;4955804;28;20461;-63
2023/12/02 07:25:57;;;;;;;83.07;42.60;;;-1.70;99.90;;;;;;4954916;28;20181;-63
2023/12/02 07:28:23;;;;;;;81.25;40.67;;;-2.00;99.90;;;;;;4954459;28;20334;-63
2023/12/02 07:30:49;;;;;;;76.72;40.50;;;-1.90;99.90;;;;;;4936623;28;20419;-63
2023/12/02 07:33:16;;;;;;;76.95;40.10;;;-1.10;99.90;;;;;;4955440;28;20106;-62
2023/12/02 07:35:42;;;;;;;86.40;42.92;;;-1.20;99.90;;;;;;4955905;28;20038;-63
2023/12/02 07:38:08;;;;;;;85.40;42.55;;;-2.00;99.90;;;;;;4939973;28;20379;-63
2023/12/02 07:40:35;;;;;;;82.07;42.20;;;-1.90;99.90;;;;;;4955998;28;20283;-63
2023/12/02 07:43:03;;;;;;;80.18;41.13;;;-1.20;99.90;;;;;;4956760;28;20051;-63
2023/12/02 07:45:29;;;;;;;76.18;40.55;;;-1.00;99.90;;;;;;4955655;28;20498;-64
2023/12/02 07:47:55;;;;;;;79.43;41.50;;;-1.10;99.90;;;;;;4955652;28;20051;-63
2023/12/02 07:50:21;;;;;;;80.30;40.55;;;-1.20;99.90;;;;;;4955978;28;20503;-63
2023/12/02 07:52:47;;;;;;;80.30;41.30;;;-1.90;99.90;;;;;;4956065;28;20284;-63
2023/12/02 07:55:13;;;;;;;75.32;39.58;;;-1.90;99.90;;;;;;4955874;28;20612;-63
2023/12/02 07:57:39;;;;;;;79.78;42.58;;;-1.60;99.90;;;;;;4955049;28;20150;-65
2023/12/02 08:00:06;;;;;;;78.57;41.53;;;-1.10;99.90;;;;;;4938891;28;20497;-63
2023/12/02 08:02:32;;;;;;;78.25;41.33;;;-1.50;99.90;;;;;;4938803;28;20077;-62
2023/12/02 08:04:57;;;;;;;84.80;41.20;;;-1.50;99.90;;;;;;4936835;28;20558;-62
2023/12/02 08:07:23;;;;;;;80.43;40.40;;;-1.90;99.90;;;;;;4954152;28;20047;-63
2023/12/02 08:09:49;;;;;;;78.25;40.40;;;-1.20;99.90;;;;;;4954154;28;20795;-63
2023/12/02 08:12:15;;;;;;;78.75;40.72;;;-1.60;99.90;;;;;;4938239;28;20357;-63
2023/12/02 08:14:41;;;;;;;74.45;39.70;;;-1.70;99.90;;;;;;4955205;28;20034;-63
2023/12/02 08:17:07;;;;;;;80.53;41.90;;;-1.40;99.90;;;;;;4938681;28;20438;-63
2023/12/02 08:19:33;;;;;;;76.40;39.60;;;-1.10;99.90;;;;;;4956345;28;20144;-64
2023/12/02 08:21:59;;;;;;;76.60;37.97;;;-1.80;99.90;;;;;;4955661;28;20077;-61
2023/12/02 08:24:42;;;;;;;78.22;41.05;;;-0.90;99.90;;;;;;4934547;28;20130;-62
2023/12/02 08:27:11;;;;;;;81.68;41.58;;;-1.40;99.90;;;;;;4940981;28;20070;-64
2023/12/02 08:29:36;;;;;;;80.40;40.38;;;-1.30;99.90;;;;;;4954525;28;20328;-62
2023/12/02 08:32:03;;;;;;;77.60;40.58;;;-0.90;99.90;;;;;;4956232;28;20045;-63
2023/12/02 08:34:29;;;;;;;76.18;39.15;;;-1.60;99.90;;;;;;4922630;28;20298;-63
2023/12/02 08:36:55;;;;;;;79.57;40.50;;;-0.70;99.90;;;;;;4936534;28;20043;-62
2023/12/02 08:39:21;;;;;;;71.22;39.95;;;-0.70;99.90;;;;;;4953156;28;20453;-62
2023/12/02 08:41:47;;;;;;;78.20;41.08;;;-1.50;99.90;;;;;;4953799;28;20055;-63
2023/12/02 08:44:13;;;;;;;72.63;38.75;;;-0.60;99.90;;;;;;4938543;28;20152;-62
2023/12/02 08:46:38;;;;;;;74.13;38.95;;;-0.60;99.90;;;;;;4939041;28;20043;-63
2023/12/02 08:49:04;;;;;;;72.55;39.17;;;-0.80;99.90;;;;;;4955110;28;20129;-63
2023/12/02 08:51:30;;;;;;;70.93;38.17;;;-0.50;99.90;;;;;;4923235;28;20402;-66
2023/12/02 08:54:01;;;;;;;73.60;40.20;;;-0.90;99.90;;;;;;4954750;28;20043;-62
2023/12/02 08:56:28;;;;;;;73.07;39.55;;;-1.30;99.90;;;;;;4939210;28;20131;-62
2023/12/02 08:58:54;;;;;;;68.93;39.63;;;-0.30;99.90;;;;;;4938485;28;20054;-62
2023/12/02 09:01:21;;;;;;;71.13;38.95;;;-0.90;99.90;;;;;;4954613;28;20279;-63
2023/12/02 09:03:46;;;;;;;74.70;40.45;;;-0.60;99.90;;;;;;4953896;28;20466;-63
2023/12/02 09:06:12;;;;;;;71.05;40.75;;;-1.10;99.90;;;;;;4952501;28;20394;-62
2023/12/02 09:08:38;;;;;;;70.07;38.92;;;-1.00;99.90;;;;;;4954300;28;20070;-63
2023/12/02 09:11:04;;;;;;;65.80;38.72;;;-1.00;99.90;;;;;;4954512;28;20093;-62
2023/12/02 09:13:39;;;;;;;63.53;37.72;;;0.00;99.90;;;;;;4956356;28;20460;-62
2023/12/02 09:16:19;;;;;;;64.32;37.90;;;0.00;99.90;;;;;;4954965;28;20283;-63
2023/12/02 09:18:45;;;;;;;62.00;36.65;;;-0.70;99.90;;;;;;4954912;28;20254;-63
2023/12/02 09:21:41;;;;;;;60.72;36.58;;;-0.10;99.90;;;;;;4938854;28;20046;-63
2023/12/02 09:24:36;;;;;;;61.20;35.10;;;-0.60;99.90;;;;;;4951633;28;20234;-62
2023/12/02 09:27:07;;;;;;;59.80;36.78;;;0.00;99.90;;;;;;4954186;28;20086;-63
2023/12/02 09:29:41;;;;;;;58.42;36.53;;;0.20;99.90;;;;;;4954644;28;20053;-63
2023/12/02 09:32:25;;;;;;;55.40;33.95;;;0.20;99.90;;;;;;4954752;28;20051;-63
2023/12/02 09:35:00;;;;;;;55.35;36.05;;;-0.10;99.90;;;;;;4955432;28;20127;-63
2023/12/02 09:37:38;;;;;;;57.75;35.20;;;-0.30;99.90;;;;;;4938622;28;20104;-63
2023/12/02 09:40:37;;;;;;;51.22;33.88;;;0.00;99.90;;;;;;4938511;28;20089;-64
2023/12/02 09:43:34;;;;;;;58.67;36.30;;;0.00;99.90;;;;;;4954958;28;20383;-63
2023/12/02 09:46:31;;;;;;;53.83;35.15;;;0.50;99.90;;;;;;4955535;28;20461;-63
2023/12/02 09:49:18;;;;;;;51.92;33.97;;;0.50;99.90;;;;;;4954044;28;20150;-63
2023/12/02 09:52:03;;;;;;;46.92;32.78;;;1.00;99.90;;;;;;4938768;28;20053;-63
2023/12/02 09:54:37;;;;;;;50.92;33.67;;;1.10;99.90;;;;;;4953912;28;20145;-63
2023/12/02 09:57:16;;;;;;;44.58;32.30;;;1.00;99.90;;;;;;4937456;28;20042;-63
2023/12/02 09:59:55;;;;;;;47.45;32.92;;;1.30;99.90;;;;;;4953525;28;20042;-63
2023/12/02 10:02:40;;;;;;;48.97;33.92;;;1.40;99.90;;;;;;4953354;28;20146;-63
2023/12/02 10:05:13;;;;;;;43.22;31.55;;;1.90;99.90;;;;;;4951684;28;20126;-64
2023/12/02 10:08:11;;;;;;;40.53;28.17;;;1.60;99.90;;;;;;4953565;28;20051;-63
2023/12/02 10:11:11;;;;;;;44.50;30.92;;;2.30;99.90;;;;;;4949367;28;20275;-63
2023/12/02 10:13:49;;;;;;;41.50;29.60;;;2.10;99.90;;;;;;4941116;28;20547;-63
2023/12/02 10:16:20;;;;;;;42.72;30.35;;;2.30;99.90;;;;;;4955234;28;20161;-65
2023/12/02 10:18:53;;;;;;;39.20;29.05;;;2.50;99.90;;;;;;4955072;28;20133;-65
2023/12/02 10:21:20;;;;;;;40.55;30.60;;;2.70;99.90;;;;;;4938221;28;20457;-65
2023/12/02 10:23:51;;;;;;;38.22;29.60;;;2.70;99.90;;;;;;4954325;28;20058;-65
2023/12/02 10:26:57;;;;;;;38.15;27.83;;;2.50;99.90;;;;;;4954421;28;20106;-65
2023/12/02 10:29:43;;;;;;;37.30;26.45;;;3.00;99.90;;;;;;4954491;28;20290;-65
2023/12/02 10:32:33;;;;;;;36.22;27.50;;;2.80;99.90;;;;;;4954962;28;20099;-65
2023/12/02 10:35:16;;;;;;;30.42;23.95;;;3.20;99.90;;;;;;4954406;28;20113;-65
2023/12/02 10:37:43;;;;;;;32.97;25.95;;;3.20;99.90;;;;;;4954880;28;20054;-65
2023/12/02 10:40:12;;;;;;;30.58;24.00;;;3.40;99.90;;;;;;4954419;28;20702;-65
2023/12/02 10:42:56;;;;;;;35.92;26.52;;;3.20;99.90;;;;;;4954150;28;20048;-65
2023/12/02 10:45:23;;;;;;;33.60;25.88;;;2.80;99.90;;;;;;4954084;28;20096;-65
2023/12/02 10:47:52;;;;;;;32.88;25.63;;;3.20;99.90;;;;;;4954475;28;20602;-65
2023/12/02 10:50:18;;;;;;;30.95;23.60;;;3.50;99.90;;;;;;4922168;28;20505;-66
2023/12/02 10:52:56;;;;;;;28.42;22.63;;;4.20;99.90;;;;;;4937264;28;20137;-65
2023/12/02 10:55:25;;;;;;;27.83;22.00;;;4.70;99.90;;;;;;4953948;28;20176;-64
2023/12/02 10:57:52;;;;;;;25.75;21.15;;;4.90;99.90;;;;;;4922025;28;20261;-65
2023/12/02 11:00:19;;;;;;;24.33;20.23;;;5.20;99.90;;;;;;4953718;28;20082;-65
2023/12/02 11:02:52;;;;;;;23.35;19.73;;;5.20;99.90;;;;;;4937986;28;20050;-65
2023/12/02 11:05:29;;;;;;;20.83;18.52;;;5.30;99.90;;;;;;4953544;28;20046;-64
2023/12/02 11:08:00;;;;;;;20.38;17.45;;;5.60;99.90;;;;;;4953142;28;20138;-65
2023/12/02 11:10:43;;;;;;;20.65;18.20;;;5.60;99.90;;;;;;4954231;28;20063;-65
2023/12/02 11:13:18;;;;;;;19.38;17.27;;;6.10;99.90;;;;;;4953082;28;20375;-66
2023/12/02 11:16:18;;;;;;;18.38;16.45;;;6.30;99.90;;;;;;4937202;28;20370;-65
2023/12/02 11:19:02;;;;;;;17.63;15.45;;;6.70;99.90;;;;;;4950173;28;20406;-67
2023/12/02 11:21:42;;;;;;;18.35;15.85;;;6.60;99.90;;;;;;4953750;28;20049;-65
2023/12/02 11:24:23;;;;;;;17.33;15.38;;;6.60;99.90;;;;;;4937037;28;20104;-65
2023/12/02 11:27:12;;;;;;;20.27;16.95;;;6.60;99.90;;;;;;4953391;28;20348;-66
2023/12/02 11:29:51;;;;;;;19.48;16.33;;;6.50;99.90;;;;;;4952899;28;20061;-65
2023/12/02 11:32:31;;;;;;;21.02;16.85;;;6.40;99.90;;;;;;4936690;28;20042;-65
2023/12/02 11:35:07;;;;;;;19.70;16.60;;;6.20;99.90;;;;;;4953177;28;20445;-65
2023/12/02 11:38:08;;;;;;;18.80;16.25;;;5.80;99.90;;;;;;4937091;28;20139;-65
2023/12/02 11:41:05;;;;;;;18.63;15.43;;;5.80;99.90;;;;;;4946854;28;20177;-65
2023/12/02 11:43:48;;;;;;;18.75;16.30;;;5.60;99.90;;;;;;4952949;28;20579;-65
2023/12/02 11:46:18;;;;;;;16.77;14.85;;;5.50;99.90;;;;;;4952868;28;20042;-66
2023/12/02 11:49:14;;;;;;;17.33;14.65;;;5.70;99.90;;;;;;4937363;28;20046;-66
2023/12/02 11:52:20;;;;;;;16.23;13.73;;;6.20;99.90;;;;;;4936596;28;20277;-66
2023/12/02 11:55:07;;;;;;;17.75;13.60;;;6.80;99.90;;;;;;4953532;28;20039;-66
2023/12/02 11:58:19;;;;;;;15.32;13.73;;;7.20;99.90;;;;;;4952121;28;20437;-66
2023/12/02 12:01:17;;;;;;;14.05;12.48;;;7.80;99.90;;;;;;4893424;28;20088;-65
2023/12/02 12:04:24;;;;;;;15.70;13.23;;;7.90;99.90;;;;;;4952164;28;20234;-66
2023/12/02 12:07:23;;;;;;;13.70;11.90;;;8.10;99.90;;;;;;4935271;28;20058;-66
2023/12/02 12:10:02;;;;;;;13.20;11.88;;;8.20;99.90;;;;;;4935551;28;20689;-67
2023/12/02 12:12:30;;;;;;;11.75;10.35;;;8.60;99.90;;;;;;4952170;28;20061;-66
2023/12/02 12:15:00;;;;;;;12.88;10.73;;;8.50;99.90;;;;;;4952921;28;20038;-67
2023/12/02 12:17:27;;;;;;;10.55;9.02;;;8.70;99.90;;;;;;4952447;28;20124;-67
2023/12/02 12:19:52;;;;;;;10.93;8.80;;;9.10;99.90;;;;;;4952148;28;20046;-66
2023/12/02 12:22:18;;;;;;;9.27;7.72;;;9.10;99.90;;;;;;4952641;28;20085;-67
2023/12/02 12:24:44;;;;;;;10.88;7.57;;;8.90;99.90;;;;;;4919755;28;20508;-66
2023/12/02 12:27:10;;;;;;;8.00;6.78;;;8.60;99.90;;;;;;4921141;28;20373;-66
2023/12/02 12:29:59;;;;;;;7.72;6.47;;;8.60;99.90;;;;;;4949663;28;20475;-66
2023/12/02 12:32:25;;;;;;;6.38;5.75;;;8.30;99.90;;;;;;4949462;28;20273;-66
2023/12/02 12:34:55;;;;;;;6.00;5.47;;;8.30;99.90;;;;;;4924304;28;20074;-66
2023/12/02 12:37:22;;;;;;;6.85;5.22;;;8.20;99.90;;;;;;4935264;28;20077;-66
2023/12/02 12:39:48;;;;;;;6.25;5.45;;;8.10;99.90;;;;;;4919352;28;20454;-66
2023/12/02 12:42:19;;;;;;;9.68;6.63;;;8.20;99.90;;;;;;4951402;28;20683;-66
2023/12/02 12:44:45;;;;;;;10.27;6.03;;;8.10;99.90;;;;;;4935079;28;20050;-66